Time;durP1;ratioP1;P1;durP2;ratioP2;P2;SDS_P1;SDS_P2;PMS_P1;PMS_P2;Temp;Humidity;BMP_temperature;BMP_pressure;BME280_temperature;BME280_humidity;BME280_pressure;Samples;Min_cycle;Max_cycle;Signal;HPM_P1;HPM_P2
2023/04/25 00:00:29;;;;;;;;;4.67;4.00;;;;;12.77;100.00;100895.78;5019298;28;57390;-73
2023/04/25 00:02:56;;;;;;;;;3.67;3.00;;;;;12.75;100.00;100897.53;5038119;28;45484;-73
2023/04/25 00:05:22;;;;;;;;;4.00;4.00;;;;;12.69;100.00;100893.13;5037298;28;45452;-73
2023/04/25 00:07:49;;;;;;;;;2.33;2.33;;;;;12.69;100.00;100890.47;5037798;28;45554;-73
2023/04/25 00:10:15;;;;;;;;;4.00;3.00;;;;;12.65;100.00;100882.50;5037225;28;47784;-73
2023/04/25 00:12:41;;;;;;;;;5.33;3.67;;;;;12.62;100.00;100888.66;5019554;28;45385;-73
2023/04/25 00:15:07;;;;;;;;;2.00;2.00;;;;;12.59;100.00;100881.59;5020148;28;45526;-73
2023/04/25 00:17:32;;;;;;;;;2.50;2.50;;;;;12.57;100.00;100885.13;5037622;28;45463;-73
2023/04/25 00:19:58;;;;;;;;;4.00;3.67;;;;;12.52;100.00;100874.50;5037241;28;46749;-73
2023/04/25 00:22:23;;;;;;;;;3.00;3.00;;;;;12.50;100.00;100870.97;5037648;28;45482;-73
2023/04/25 00:24:49;;;;;;;;;4.00;4.00;;;;;12.48;100.00;100878.03;5037236;28;45535;-73
2023/04/25 00:27:14;;;;;;;;;3.00;3.00;;;;;12.46;100.00;100892.13;5037520;28;45317;-73
2023/04/25 00:29:40;;;;;;;;;3.00;2.00;;;;;12.42;100.00;100882.41;5037151;28;45632;-73
2023/04/25 00:32:05;;;;;;;;;0.00;0.00;;;;;12.40;100.00;100887.69;5037003;28;55202;-73
2023/04/25 00:34:30;;;;;;;;;4.00;4.00;;;;;12.40;100.00;100879.75;5036936;28;45502;-73
2023/04/25 00:36:56;;;;;;;;;3.67;3.00;;;;;12.40;100.00;100885.03;5019139;28;45362;-73
2023/04/25 00:39:22;;;;;;;;;2.33;2.33;;;;;12.37;100.00;100881.50;5019470;28;47302;-73
2023/04/25 00:41:48;;;;;;;;;4.25;4.25;;;;;12.38;100.00;100886.81;5018893;28;46009;-73
2023/04/25 00:44:16;;;;;;;;;5.33;3.67;;;;;12.42;100.00;100888.59;5037039;28;45332;-73
2023/04/25 00:46:42;;;;;;;;;5.00;5.00;;;;;12.44;100.00;100883.28;5019980;28;45591;-73
2023/04/25 00:49:07;;;;;;;;;2.33;2.33;;;;;12.50;100.00;100899.22;5036455;28;47087;-73
2023/04/25 00:51:33;;;;;;;;;3.00;3.00;;;;;12.54;100.00;100888.63;5037214;28;45423;-73
2023/04/25 00:53:58;;;;;;;;;4.33;3.00;;;;;12.59;100.00;100899.25;5035742;28;45317;-73
2023/04/25 00:56:24;;;;;;;;;5.00;3.67;;;;;12.61;100.00;100888.66;5019499;28;45678;-73
2023/04/25 00:58:54;;;;;;;;;3.00;3.00;;;;;12.64;100.00;100889.56;5036546;28;46426;-73
2023/04/25 01:01:19;;;;;;;;;4.00;4.00;;;;;12.64;100.00;100891.31;5017915;28;45229;-73
2023/04/25 01:03:46;;;;;;;;;4.00;3.00;;;;;12.63;100.00;100889.56;5036240;28;45884;-74
2023/04/25 01:06:12;;;;;;;;;6.00;4.00;;;;;12.55;100.00;100881.56;5036892;28;45285;-73
2023/04/25 01:08:38;;;;;;;;;3.33;3.00;;;;;12.50;100.00;100889.50;5036359;28;46969;-73
2023/04/25 01:11:04;;;;;;;;;2.67;2.33;;;;;12.45;100.00;100893.88;5036491;28;45425;-73
2023/04/25 01:13:31;;;;;;;;;2.00;2.00;;;;;12.39;100.00;100885.03;5036863;28;45511;-73
2023/04/25 01:15:57;;;;;;;;;3.00;3.00;;;;;12.32;100.00;100884.13;5018924;28;45548;-73
2023/04/25 01:18:23;;;;;;;;;7.67;4.33;;;;;12.27;100.00;100872.63;5036183;28;46488;-73
2023/04/25 01:20:50;;;;;;;;;6.00;4.00;;;;;12.26;100.00;100882.34;5036692;28;45290;-73
2023/04/25 01:23:16;;;;;;;;;6.33;3.67;;;;;12.24;100.00;100878.78;5036342;28;45391;-73
2023/04/25 01:25:41;;;;;;;;;4.00;4.00;;;;;12.22;100.00;100882.31;5036404;28;45646;-73
2023/04/25 01:28:07;;;;;;;;;5.67;3.33;;;;;12.21;100.00;100872.63;5017876;28;61193;-73
2023/04/25 01:30:33;;;;;;;;;3.67;3.00;;;;;12.22;100.00;100879.66;5018436;28;45321;-73
2023/04/25 01:32:59;;;;;;;;;6.67;4.00;;;;;12.16;100.00;100891.13;5018047;28;45465;-73
2023/04/25 01:35:25;;;;;;;;;5.00;3.67;;;;;12.19;100.00;100888.47;5035555;22;46760;-73
2023/04/25 01:37:51;;;;;;;;;3.67;3.67;;;;;12.18;100.00;100877.88;5034664;28;45792;-73
2023/04/25 01:40:18;;;;;;;;;4.00;4.00;;;;;12.21;100.00;100885.84;5018437;28;45369;-73
2023/04/25 01:42:44;;;;;;;;;4.00;2.00;;;;;12.24;100.00;100885.84;5018176;28;45381;-73
2023/04/25 01:45:10;;;;;;;;;5.00;3.00;;;;;12.23;100.00;100882.31;5035413;28;45395;-72
2023/04/25 01:47:36;;;;;;;;;5.67;3.00;;;;;12.27;100.00;100891.16;5035350;28;46168;-73
2023/04/25 01:50:03;;;;;;;;;6.00;4.00;;;;;12.29;100.00;100897.34;5033958;28;45480;-73
2023/04/25 01:52:29;;;;;;;;;4.00;3.67;;;;;12.31;100.00;100893.84;5035841;28;45355;-73
2023/04/25 01:54:57;;;;;;;;;8.00;4.00;;;;;12.35;100.00;100894.72;5001625;28;45599;-73
2023/04/25 01:57:22;;;;;;;;;3.75;3.75;;;;;12.39;100.00;100887.69;5018200;28;47839;-73
2023/04/25 01:59:48;;;;;;;;;4.67;4.00;;;;;12.40;100.00;100878.84;5035791;28;45135;-73
2023/04/25 02:02:13;;;;;;;;;6.33;4.00;;;;;12.39;100.00;100892.97;5035943;28;48776;-72
2023/04/25 02:04:38;;;;;;;;;5.00;4.00;;;;;12.36;100.00;100899.16;5035486;28;45166;-73
2023/04/25 02:07:04;;;;;;;;;6.75;4.00;;;;;12.35;100.00;100901.78;5035301;28;52458;-72
2023/04/25 02:09:29;;;;;;;;;5.00;5.00;;;;;12.35;100.00;100907.06;5035581;28;47009;-73
2023/04/25 02:11:55;;;;;;;;;5.00;3.67;;;;;12.29;100.00;100892.06;5036026;28;45217;-72
2023/04/25 02:14:20;;;;;;;;;3.25;3.25;;;;;12.26;100.00;100900.88;5035675;28;45360;-72
2023/04/25 02:16:46;;;;;;;;;5.33;4.33;;;;;12.22;100.00;100896.44;5034410;28;56305;-73
2023/04/25 02:19:11;;;;;;;;;5.50;4.00;;;;;12.24;100.00;100893.78;5017328;28;45346;-73
2023/04/25 02:21:37;;;;;;;;;3.75;3.75;;;;;12.22;100.00;100899.09;5035962;28;45364;-73
2023/04/25 02:24:03;;;;;;;;;5.00;5.00;;;;;12.21;100.00;100907.03;5016612;28;45673;-73
2023/04/25 02:26:29;;;;;;;;;4.50;4.00;;;;;12.17;100.00;100900.81;5034651;28;47204;-72
2023/04/25 02:28:56;;;;;;;;;5.33;4.00;;;;;12.14;100.00;100902.56;5039258;28;45489;-73
2023/04/25 02:31:21;;;;;;;;;7.50;4.00;;;;;12.09;100.00;100901.63;5035685;28;45491;-73
2023/04/25 02:33:47;;;;;;;;;7.75;6.25;;;;;12.10;100.00;100906.09;5030117;28;45378;-72
2023/04/25 02:36:12;;;;;;;;;8.25;7.00;;;;;12.07;100.00;100902.53;5034537;28;46224;-73
2023/04/25 02:38:38;;;;;;;;;5.50;5.50;;;;;12.02;100.00;100904.25;5035502;28;50750;-73
2023/04/25 02:41:03;;;;;;;;;2.00;2.00;;;;;11.95;100.00;100901.56;5033806;28;45222;-73
2023/04/25 02:43:28;;;;;;;;;9.00;4.50;;;;;11.94;100.00;100913.91;5018124;28;45503;-73
2023/04/25 02:45:54;;;;;;;;;5.25;4.00;;;;;11.94;100.00;100913.91;5035234;28;54039;-73
2023/04/25 02:48:19;;;;;;;;;5.75;5.75;;;;;11.93;100.00;100912.16;5034239;28;49582;-73
2023/04/25 02:50:45;;;;;;;;;5.50;4.00;;;;;11.97;100.00;100915.69;5017355;28;45523;-73
2023/04/25 02:53:10;;;;;;;;;4.50;4.50;;;;;11.98;100.00;100904.22;5035341;28;45443;-73
2023/04/25 02:55:35;;;;;;;;;8.75;4.25;;;;;11.97;100.00;100903.34;5034960;28;55781;-73
2023/04/25 02:58:01;;;;;;;;;3.75;3.75;;;;;11.94;100.00;100916.56;5034597;28;49827;-72
2023/04/25 03:00:26;;;;;;;;;7.25;7.25;;;;;11.95;100.00;100917.44;5034640;28;53663;-73
2023/04/25 03:02:52;;;;;;;;;8.50;6.25;;;;;11.96;100.00;100927.16;5034888;28;46275;-73
2023/04/25 03:05:17;;;;;;;;;5.67;4.33;;;;;11.95;100.00;100915.69;5035329;28;46318;-73
2023/04/25 03:07:43;;;;;;;;;4.67;4.00;;;;;11.96;100.00;100911.28;5034765;28;45301;-73
2023/04/25 03:10:10;;;;;;;;;6.25;5.00;;;;;11.96;100.00;100898.94;5035359;28;45223;-72
2023/04/25 03:12:36;;;;;;;;;11.00;8.50;;;;;12.03;100.00;100910.44;5035153;28;45322;-72
2023/04/25 03:15:01;;;;;;;;;5.75;4.50;;;;;12.03;100.00;100902.50;5016621;28;45510;-72
2023/04/25 03:17:26;;;;;;;;;8.00;5.67;;;;;12.05;100.00;100914.88;5037580;28;45442;-72
2023/04/25 03:19:52;;;;;;;;;7.00;4.67;;;;;12.06;100.00;100906.06;5038090;28;45332;-72
2023/04/25 03:22:17;;;;;;;;;9.33;6.67;;;;;12.09;100.00;100918.44;5037782;28;48753;-72
2023/04/25 03:24:43;;;;;;;;;10.33;8.00;;;;;12.07;100.00;100904.28;5038433;28;45539;-72
2023/04/25 03:27:08;;;;;;;;;6.33;6.33;;;;;12.09;100.00;100904.28;5038028;28;45424;-73
2023/04/25 03:29:33;;;;;;;;;8.67;6.33;;;;;12.11;100.00;100906.09;5037856;28;45911;-73
2023/04/25 03:31:59;;;;;;;;;10.67;7.67;;;;;12.11;100.00;100905.19;5038656;28;45737;-73
2023/04/25 03:34:25;;;;;;;;;8.50;7.25;;;;;12.10;100.00;100901.66;5037277;28;68827;-73
2023/04/25 03:36:51;;;;;;;;;5.75;4.75;;;;;12.11;100.00;100905.19;5019892;28;45579;-72
2023/04/25 03:39:16;;;;;;;;;10.00;6.67;;;;;12.07;100.00;100904.28;5020255;28;45423;-73
2023/04/25 03:41:42;;;;;;;;;8.00;8.00;;;;;12.06;100.00;100906.06;5020159;28;45491;-73
2023/04/25 03:44:07;;;;;;;;;8.00;5.67;;;;;12.04;100.00;100915.75;5035769;28;60371;-72
2023/04/25 03:46:32;;;;;;;;;6.75;5.25;;;;;12.02;100.00;100906.03;5037610;28;53327;-73
2023/04/25 03:48:59;;;;;;;;;10.75;5.00;;;;;12.00;100.00;100923.66;5037764;28;45281;-72
2023/04/25 03:51:25;;;;;;;;;10.50;7.50;;;;;11.99;100.00;100920.13;5037686;28;45197;-73
2023/04/25 03:53:50;;;;;;;;;10.67;4.00;;;;;11.92;100.00;100915.66;5037446;28;46414;-73
2023/04/25 03:56:16;;;;;;;;;5.00;5.00;;;;;11.92;100.00;100922.72;5037673;28;45369;-72
2023/04/25 03:58:41;;;;;;;;;10.00;7.75;;;;;11.89;100.00;100918.28;5038009;28;45707;-73
2023/04/25 04:01:07;;;;;;;;;13.50;7.25;;;;;11.89;100.00;100917.41;5037462;28;46638;-73
2023/04/25 04:03:36;;;;;;;;;5.00;5.00;;;;;11.87;100.00;100924.44;5037086;28;46686;-73
2023/04/25 04:06:05;;;;;;;;;5.75;4.00;;;;;11.87;100.00;100929.72;5037591;28;45586;-73
2023/04/25 04:08:31;;;;;;;;;7.33;5.00;;;;;11.80;100.00;100919.06;5037978;28;45291;-73
2023/04/25 04:10:57;;;;;;;;;10.00;8.25;;;;;11.78;100.00;100927.88;5038161;28;45638;-73
2023/04/25 04:13:23;;;;;;;;;7.00;4.75;;;;;11.76;100.00;100927.84;5037189;28;47012;-73
2023/04/25 04:15:48;;;;;;;;;8.50;5.00;;;;;11.75;100.00;100930.50;5037246;28;54668;-73
2023/04/25 04:18:13;;;;;;;;;9.50;4.25;;;;;11.75;100.00;100930.50;5036723;28;61748;-73
2023/04/25 04:20:39;;;;;;;;;8.75;7.00;;;;;11.75;100.00;100934.03;5019828;28;45464;-73
2023/04/25 04:23:05;;;;;;;;;8.00;5.00;;;;;11.70;100.00;100933.09;5037014;28;53317;-73
2023/04/25 04:25:30;;;;;;;;;9.75;7.00;;;;;11.67;100.00;100943.66;5036694;28;45359;-73
2023/04/25 04:27:56;;;;;;;;;5.75;5.00;;;;;11.58;100.00;100937.41;5037125;28;45658;-73
2023/04/25 04:30:24;;;;;;;;;10.00;8.25;;;;;11.61;100.00;100940.97;5037657;28;45542;-73
2023/04/25 04:32:50;;;;;;;;;8.25;7.50;;;;;11.58;100.00;100951.53;5036654;28;46604;-72
2023/04/25 04:35:15;;;;;;;;;10.25;10.00;;;;;11.59;100.00;100958.56;5037136;28;45472;-73
2023/04/25 04:37:41;;;;;;;;;10.00;6.50;;;;;11.61;100.00;100955.94;5036528;28;45930;-73
2023/04/25 04:40:07;;;;;;;;;7.50;5.25;;;;;11.63;100.00;100963.03;5036880;28;45794;-73
2023/04/25 04:42:32;;;;;;;;;4.00;3.00;;;;;11.62;100.00;100960.38;5036151;28;46214;-72
2023/04/25 04:44:58;;;;;;;;;7.75;7.75;;;;;11.59;100.00;100957.69;5036622;28;45442;-73
2023/04/25 04:47:25;;;;;;;;;5.75;5.75;;;;;11.55;100.00;100955.00;5037138;28;45440;-73
2023/04/25 04:49:51;;;;;;;;;13.25;7.75;;;;;11.57;100.00;100967.38;5036732;28;45304;-73
2023/04/25 04:52:16;;;;;;;;;8.50;8.00;;;;;11.55;100.00;100960.28;5019359;28;46803;-73
2023/04/25 04:54:41;;;;;;;;;13.75;10.00;;;;;11.57;100.00;100962.97;5018650;28;45505;-73
2023/04/25 04:57:07;;;;;;;;;5.00;4.25;;;;;11.58;100.00;100967.38;5036681;28;46887;-73
2023/04/25 04:59:32;;;;;;;;;9.00;8.50;;;;;11.55;100.00;100976.16;5037004;28;45289;-73
2023/04/25 05:01:58;;;;;;;;;10.00;7.75;;;;;11.59;100.00;100978.84;5036562;28;46103;-73
2023/04/25 05:04:23;;;;;;;;;12.00;7.50;;;;;11.63;100.00;100986.81;5036221;28;52150;-73
2023/04/25 05:06:48;;;;;;;;;7.25;7.25;;;;;11.65;100.00;100989.47;5034825;28;45532;-72
2023/04/25 05:09:14;;;;;;;;;9.50;7.00;;;;;11.67;100.00;100991.28;5036767;28;45484;-73
2023/04/25 05:11:40;;;;;;;;;6.25;4.75;;;;;11.73;100.00;100996.63;5036685;28;47459;-73
2023/04/25 05:14:05;;;;;;;;;11.75;9.50;;;;;11.70;100.00;100995.69;5035432;28;56409;-72
2023/04/25 05:16:31;;;;;;;;;10.25;9.00;;;;;11.71;100.00;101003.63;5036957;28;45435;-73
2023/04/25 05:18:56;;;;;;;;;11.50;9.25;;;;;11.74;100.00;101018.66;5036507;28;45384;-72
2023/04/25 05:21:22;;;;;;;;;10.00;7.00;;;;;11.74;100.00;101016.03;5035488;28;58854;-72
2023/04/25 05:23:47;;;;;;;;;9.75;8.25;;;;;11.77;100.00;101016.94;5033610;28;45406;-73
2023/04/25 05:26:15;;;;;;;;;11.25;8.75;;;;;11.79;100.00;101019.59;5036949;28;45289;-73
2023/04/25 05:28:41;;;;;;;;;11.25;9.50;;;;;11.81;100.00;101017.84;5036325;28;46336;-72
2023/04/25 05:31:07;;;;;;;;;8.75;8.75;;;;;11.84;100.00;101023.19;5035598;28;46691;-72
2023/04/25 05:33:32;;;;;;;;;11.00;9.00;;;;;11.89;100.00;101029.44;5001522;28;45469;-72
2023/04/25 05:35:57;;;;;;;;;11.75;9.75;;;;;11.92;100.00;101037.38;5034970;28;49484;-72
2023/04/25 05:38:23;;;;;;;;;8.00;8.00;;;;;11.92;100.00;101045.31;5038195;28;45335;-73
2023/04/25 05:40:48;;;;;;;;;15.75;10.00;;;;;11.90;100.00;101041.78;5035384;28;45864;-73
2023/04/25 05:43:14;;;;;;;;;14.50;10.00;;;;;11.96;100.00;101052.41;5035777;28;45543;-72
2023/04/25 05:45:39;;;;;;;;;14.25;10.00;;;;;11.98;100.00;101057.72;5034876;28;45305;-72
2023/04/25 05:48:05;;;;;;;;;10.50;9.00;;;;;11.99;100.00;101070.09;5024914;28;45533;-72
2023/04/25 05:50:30;;;;;;;;;10.00;10.00;;;;;12.01;100.00;101065.69;5030096;28;46401;-72
2023/04/25 05:52:56;;;;;;;;;13.00;11.75;;;;;12.06;100.00;101082.50;5030852;28;45447;-72
2023/04/25 05:55:21;;;;;;;;;10.50;10.25;;;;;12.05;100.00;101075.44;5031659;28;57122;-72
2023/04/25 05:57:46;;;;;;;;;11.00;9.00;;;;;12.06;100.00;101071.91;5032239;28;45285;-72
2023/04/25 06:00:14;;;;;;;;;12.50;9.25;;;;;12.10;100.00;101089.59;5034578;28;46509;-72
2023/04/25 06:02:40;;;;;;;;;14.00;12.50;;;;;12.14;100.00;101087.84;5034961;28;45463;-72
2023/04/25 06:05:06;;;;;;;;;12.00;10.25;;;;;12.14;100.00;101094.00;5034461;28;45428;-72
2023/04/25 06:07:31;;;;;;;;;6.50;6.50;;;;;12.12;100.00;101084.31;5033567;28;45245;-73
2023/04/25 06:09:57;;;;;;;;;16.00;11.50;;;;;12.14;100.00;101091.38;4997370;28;51046;-72
2023/04/25 06:12:22;;;;;;;;;14.00;11.75;;;;;12.18;100.00;101094.94;5027642;28;45484;-72
2023/04/25 06:14:48;;;;;;;;;10.75;9.00;;;;;12.20;100.00;101099.41;5024146;28;45498;-72
2023/04/25 06:17:13;;;;;;;;;10.00;8.00;;;;;12.25;100.00;101102.06;5026246;28;45353;-72
2023/04/25 06:19:38;;;;;;;;;6.25;6.25;;;;;12.30;100.00;101106.53;5024197;28;46788;-72
2023/04/25 06:22:04;;;;;;;;;10.00;8.50;;;;;12.31;100.00;101095.06;5019186;28;45445;-72
2023/04/25 06:24:29;;;;;;;;;10.00;8.00;;;;;12.39;100.00;101097.75;5023100;28;45540;-72
2023/04/25 06:26:54;;;;;;;;;7.25;4.50;;;;;12.42;100.00;101089.84;5010317;28;58654;-72
2023/04/25 06:29:20;;;;;;;;;10.00;6.67;;;;;12.45;100.00;101099.56;5023227;28;70023;-72
2023/04/25 06:31:46;;;;;;;;;8.67;6.67;;;;;12.52;100.00;101106.72;5031635;28;65518;-72
2023/04/25 06:34:11;;;;;;;;;10.67;6.00;;;;;12.54;100.00;101105.81;5027356;28;45440;-72
2023/04/25 06:36:36;;;;;;;;;8.50;7.25;;;;;12.56;100.00;101104.06;5023933;28;61485;-72
2023/04/25 06:39:02;;;;;;;;;6.00;6.00;;;;;12.63;100.00;101114.72;5030143;28;64831;-72
2023/04/25 06:41:27;;;;;;;;;8.33;7.33;;;;;12.63;100.00;101105.03;5008897;28;45439;-72
2023/04/25 06:43:52;;;;;;;;;5.00;5.00;;;;;12.65;100.00;101105.91;4998284;28;55130;-72
2023/04/25 06:46:18;;;;;;;;;5.25;5.25;;;;;12.74;100.00;101119.22;5016614;28;59112;-71
2023/04/25 06:48:43;;;;;;;;;8.00;6.00;;;;;12.78;100.00;101120.09;5016666;28;71700;-72
2023/04/25 06:51:09;;;;;;;;;10.75;9.00;;;;;12.84;100.00;101133.44;5030112;28;46171;-72
2023/04/25 06:53:34;;;;;;;;;9.00;9.00;;;;;12.87;100.00;101124.59;5029153;28;45408;-72
2023/04/25 06:55:59;;;;;;;;;11.00;9.75;;;;;12.89;100.00;101137.00;5026430;28;45796;-72
2023/04/25 06:58:26;;;;;;;;;13.25;9.75;;;;;12.83;100.00;101129.88;5013471;28;46703;-72
2023/04/25 07:00:51;;;;;;;;;13.50;11.00;;;;;12.79;100.00;101149.28;5037801;28;45450;-72
2023/04/25 07:03:16;;;;;;;;;15.75;11.00;;;;;12.78;100.00;101154.56;5038742;28;45332;-72
2023/04/25 07:05:42;;;;;;;;;16.00;13.00;;;;;12.72;100.00;101152.75;5034064;28;45715;-73
2023/04/25 07:08:07;;;;;;;;;18.50;12.00;;;;;12.69;100.00;101149.22;5032156;28;55724;-71
2023/04/25 07:10:32;;;;;;;;;16.50;14.25;;;;;12.68;100.00;101158.94;5037004;28;45360;-71
2023/04/25 07:12:58;;;;;;;;;17.00;14.25;;;;;12.65;100.00;101158.00;5036174;28;45549;-71
2023/04/25 07:15:23;;;;;;;;;16.75;14.75;;;;;12.62;100.00;101164.16;5034881;28;45509;-71
2023/04/25 07:17:48;;;;;;;;;17.50;13.50;;;;;12.58;100.00;101165.91;5036144;28;46590;-73
2023/04/25 07:20:14;;;;;;;;;12.00;12.00;;;;;12.57;100.00;101158.84;5034459;28;47611;-74
2023/04/25 07:22:39;;;;;;;;;13.75;12.25;;;;;12.57;100.00;101165.91;5031382;28;45463;-70
2023/04/25 07:25:05;;;;;;;;;11.00;9.25;;;;;12.57;100.00;101172.09;5038410;28;45440;-70
2023/04/25 07:27:31;;;;;;;;;16.25;12.00;;;;;12.52;100.00;101181.75;5020062;28;46263;-73
2023/04/25 07:29:57;;;;;;;;;16.00;12.75;;;;;12.49;100.00;101186.13;5033392;28;64590;-73
2023/04/25 07:32:22;;;;;;;;;19.75;14.25;;;;;12.50;100.00;101183.47;5034169;28;45420;-72
2023/04/25 07:34:48;;;;;;;;;17.75;12.00;;;;;12.49;100.00;101189.66;5019239;28;45753;-72
2023/04/25 07:37:14;;;;;;;;;15.25;13.00;;;;;12.50;100.00;101188.78;5038416;28;46311;-72
2023/04/25 07:39:39;;;;;;;;;15.00;11.25;;;;;12.54;100.00;101189.72;5022555;28;45524;-71
2023/04/25 07:42:07;;;;;;;;;12.50;11.25;;;;;12.61;100.00;101193.28;5036979;28;45391;-73
2023/04/25 07:44:38;;;;;;;;;13.50;13.50;;;;;12.70;100.00;101190.72;5037650;28;45551;-71
2023/04/25 07:47:04;;;;;;;;;17.25;13.00;;;;;12.81;100.00;101195.22;5020474;28;45876;-73
2023/04/25 07:49:29;;;;;;;;;13.25;11.75;;;;;12.90;100.00;101193.53;5037992;28;45506;-72
2023/04/25 07:51:55;;;;;;;;;18.50;12.00;;;;;12.99;100.00;101198.88;5032707;28;45481;-73
2023/04/25 07:54:20;;;;;;;;;10.50;10.25;;;;;13.09;100.00;101198.94;5032446;28;50073;-72
2023/04/25 07:56:45;;;;;;;;;19.00;13.50;;;;;13.22;100.00;101205.28;5033607;28;45634;-74
2023/04/25 07:59:11;;;;;;;;;15.50;13.25;;;;;13.29;100.00;101211.50;5027939;28;48636;-74
2023/04/25 08:01:36;;;;;;;;;21.25;13.50;;;;;13.36;100.00;101222.13;5015245;28;45308;-73
2023/04/25 08:04:02;;;;;;;;;14.25;13.50;;;;;13.37;100.00;101231.00;5035538;28;45391;-73
2023/04/25 08:06:27;;;;;;;;;16.00;13.00;;;;;13.36;100.00;101222.13;5034298;28;45605;-74
2023/04/25 08:08:52;;;;;;;;;11.75;11.00;;;;;13.36;100.00;101229.19;5027870;28;48618;-74
2023/04/25 08:11:18;;;;;;;;;13.00;9.00;;;;;13.40;100.00;101232.78;5027580;28;45313;-74
2023/04/25 08:13:43;;;;;;;;;13.75;9.75;;;;;13.45;100.00;101239.00;5029688;28;53454;-74
2023/04/25 08:16:09;;;;;;;;;9.33;9.33;;;;;13.48;100.00;101244.34;5015876;28;47502;-73
2023/04/25 08:18:34;;;;;;;;;14.00;11.00;;;;;13.52;100.00;101256.72;5033567;28;45476;-74
2023/04/25 08:21:00;;;;;;;;;11.00;10.00;;;;;13.52;100.00;101251.41;5034107;28;45536;-74
2023/04/25 08:23:25;;;;;;;;;12.67;9.33;;;;;13.50;100.00;101253.16;5036365;28;45454;-74
2023/04/25 08:25:50;;;;;;;;;10.67;8.33;;;;;13.50;100.00;101267.31;5022976;28;48168;-74
2023/04/25 08:28:16;;;;;;;;;11.33;9.67;;;;;13.48;100.00;101263.78;5036095;28;45975;-74
2023/04/25 08:30:41;;;;;;;;;14.25;8.25;;;;;13.45;100.00;101261.09;5032208;28;45997;-74
2023/04/25 08:33:06;;;;;;;;;14.00;10.33;;;;;13.42;100.00;101266.38;5034265;28;45356;-73
2023/04/25 08:35:33;;;;;;;;;13.00;6.33;;;;;13.37;100.00;101273.44;5029817;28;60275;-74
2023/04/25 08:37:59;;;;;;;;;11.67;9.00;;;;;13.29;100.00;101269.84;5035920;28;45268;-74
2023/04/25 08:40:28;;;;;;;;;13.67;10.67;;;;;13.27;100.00;101276.91;5037836;28;45304;-74
2023/04/25 08:42:54;;;;;;;;;7.00;7.00;;;;;13.20;100.00;101283.88;5015740;28;45502;-74
2023/04/25 08:45:20;;;;;;;;;11.00;8.33;;;;;13.17;100.00;101282.97;5013537;28;45990;-74
2023/04/25 08:47:48;;;;;;;;;12.33;8.33;;;;;13.24;100.00;101290.13;5031935;28;45515;-74
2023/04/25 08:50:14;;;;;;;;;7.67;7.67;;;;;13.40;100.00;101286.72;5001631;28;45575;-74
2023/04/25 08:52:44;;;;;;;;;9.67;8.00;;;;;13.50;100.00;101296.50;5014880;28;45589;-74
2023/04/25 08:55:12;;;;;;;;;9.00;7.67;;;;;13.58;100.00;101293.88;5029675;28;47397;-74
2023/04/25 08:57:38;;;;;;;;;9.33;9.33;;;;;13.67;100.00;101306.34;5035083;28;45518;-74
2023/04/25 09:00:04;;;;;;;;;10.67;6.33;;;;;13.73;100.00;101301.06;5019557;28;45514;-74
2023/04/25 09:02:29;;;;;;;;;8.00;6.00;;;;;13.70;100.00;101295.75;5036348;28;45484;-74
2023/04/25 09:04:56;;;;;;;;;7.67;5.00;;;;;13.75;100.00;101312.59;5037145;28;45948;-74
2023/04/25 09:07:21;;;;;;;;;8.00;7.67;;;;;13.82;100.00;101312.63;5037279;28;45498;-74
2023/04/25 09:09:47;;;;;;;;;9.67;7.00;;;;;13.96;100.00;101325.09;5018706;28;45407;-74
2023/04/25 09:12:12;;;;;;;;;7.00;7.00;;;;;14.07;100.00;101318.94;5036474;28;45285;-74
2023/04/25 09:14:38;;;;;;;;;12.00;9.33;;;;;14.21;100.00;101334.03;5035874;28;49203;-74
2023/04/25 09:17:05;;;;;;;;;7.00;7.00;;;;;14.27;100.00;101334.06;5036480;28;45348;-74
2023/04/25 09:19:33;;;;;;;;;13.67;6.33;;;;;14.28;100.00;101327.88;5019203;28;45408;-73
2023/04/25 09:22:02;;;;;;;;;7.67;5.00;;;;;14.25;100.00;101328.75;5019123;28;45230;-73
2023/04/25 09:24:37;;;;;;;;;8.00;8.00;;;;;14.27;100.00;101336.72;5035832;28;46930;-75
2023/04/25 09:27:13;;;;;;;;;8.00;5.67;;;;;14.30;100.00;101342.03;5018776;28;45416;-75
2023/04/25 09:29:40;;;;;;;;;7.33;6.00;;;;;14.24;100.00;101342.91;5018165;28;46084;-74
2023/04/25 09:32:23;;;;;;;;;7.67;7.00;;;;;14.17;100.00;101351.75;5033603;28;45443;-75
2023/04/25 09:34:56;;;;;;;;;6.33;5.00;;;;;14.14;100.00;101349.94;5030325;28;46592;-75
2023/04/25 09:37:27;;;;;;;;;8.33;7.00;;;;;14.13;100.00;101353.50;5028381;28;45387;-74
2023/04/25 09:39:55;;;;;;;;;9.33;7.33;;;;;14.19;100.00;101354.41;5032672;28;46549;-74
2023/04/25 09:42:28;;;;;;;;;8.33;7.00;;;;;14.25;100.00;101352.66;5011673;28;46152;-74
2023/04/25 09:44:55;;;;;;;;;8.33;6.00;;;;;14.28;100.00;101355.34;5016453;28;45690;-73
2023/04/25 09:47:23;;;;;;;;;7.67;6.00;;;;;14.32;100.00;101359.75;5017572;28;45534;-74
2023/04/25 09:49:48;;;;;;;;;11.00;7.00;;;;;14.43;100.00;101349.16;5011543;28;45883;-73
2023/04/25 09:52:18;;;;;;;;;8.33;6.33;;;;;14.61;100.00;101353.69;5011590;28;45557;-74
2023/04/25 09:54:45;;;;;;;;;10.33;7.00;;;;;14.75;100.00;101353.72;5030509;28;45656;-74
2023/04/25 09:57:18;;;;;;;;;6.33;6.33;;;;;14.93;100.00;101364.41;5030751;28;45471;-74
2023/04/25 09:59:45;;;;;;;;;6.33;6.33;;;;;15.01;100.00;101359.97;5032436;28;45462;-74
2023/04/25 10:02:12;;;;;;;;;5.67;4.67;;;;;15.06;100.00;101367.97;5032574;28;45640;-74
2023/04/25 10:04:38;;;;;;;;;9.67;5.00;;;;;15.07;100.00;101367.94;5008581;28;46579;-74
2023/04/25 10:07:06;;;;;;;;;17.00;6.67;;;;;14.96;100.00;101359.06;5028896;28;45356;-73
2023/04/25 10:09:35;;;;;;;;;6.33;6.00;;;;;14.94;100.00;101372.38;5008689;28;45492;-74
2023/04/25 10:12:01;;;;;;;;;5.33;5.33;;;;;14.88;100.00;101369.72;5031934;28;45459;-74
2023/04/25 10:14:27;;;;;;;;;6.00;5.00;;;;;14.81;100.00;101375.91;5017182;28;46816;-74
2023/04/25 10:16:53;;;;;;;;;5.33;5.33;;;;;14.76;100.00;101368.81;5007569;28;45484;-74
2023/04/25 10:19:19;;;;;;;;;7.33;5.67;;;;;14.79;100.00;101382.09;5025846;28;45512;-74
2023/04/25 10:22:18;;;;;;;;;5.67;5.00;;;;;14.80;100.00;101379.44;5034215;28;45372;-74
2023/04/25 10:24:46;;;;;;;;;4.00;2.33;;;;;14.76;100.00;101372.34;4966869;28;48092;-73
2023/04/25 10:27:12;;;;;;;;;7.67;5.00;;;;;14.75;100.00;101380.31;5011386;28;45331;-74
2023/04/25 10:29:37;;;;;;;;;4.33;4.33;;;;;14.73;100.00;101375.00;5013264;28;45451;-74
2023/04/25 10:32:03;;;;;;;;;7.33;5.67;;;;;14.76;100.00;101382.09;5027223;28;45449;-74
2023/04/25 10:34:41;;;;;;;;;7.67;4.67;;;;;14.80;100.00;101378.53;5033616;28;46413;-74
2023/04/25 10:37:10;;;;;;;;;6.33;6.33;;;;;14.89;100.00;101374.13;5025025;28;45259;-74
2023/04/25 10:39:38;;;;;;;;;12.00;11.67;;;;;15.06;100.00;101375.94;5015124;28;45499;-74
2023/04/25 10:42:04;;;;;;;;;7.33;6.00;;;;;15.20;100.00;101380.38;5030680;28;45593;-73
2023/04/25 10:44:29;;;;;;;;;7.67;5.00;;;;;15.35;100.00;101381.28;5035323;28;45692;-74
2023/04/25 10:46:57;;;;;;;;;5.33;5.33;;;;;15.45;100.00;101383.06;5033604;28;45424;-76
2023/04/25 10:49:32;;;;;;;;;5.00;4.00;;;;;15.48;100.00;101383.06;5034478;28;45360;-74
2023/04/25 10:52:25;;;;;;;;;4.33;4.33;;;;;15.49;100.00;101387.47;5032911;28;45671;-74
2023/04/25 10:54:56;;;;;;;;;4.33;4.33;;;;;15.45;100.00;101383.97;5034490;28;47238;-73
2023/04/25 10:57:40;;;;;;;;;6.33;4.00;;;;;15.45;100.00;101391.06;5034820;28;45451;-74
2023/04/25 11:00:06;;;;;;;;;5.33;4.00;;;;;15.44;100.00;101386.59;5034525;28;45403;-78
2023/04/25 11:02:32;;;;;;;;;5.33;5.00;;;;;15.40;100.00;101392.84;5034804;28;45515;-76
2023/04/25 11:04:58;;;;;;;;;6.00;4.33;;;;;15.40;100.00;101395.50;5013727;28;46406;-76
2023/04/25 11:07:35;;;;;;;;;5.00;5.00;;;;;15.41;100.00;101391.94;5013150;28;45615;-75